Time;durP1;ratioP1;P1;durP2;ratioP2;P2;SDS_P1;SDS_P2;PMS_P1;PMS_P2;Temp;Humidity;BMP_temperature;BMP_pressure;BME280_temperature;BME280_humidity;BME280_pressure;Samples;Min_cycle;Max_cycle;Signal;HPM_P1;HPM_P2
2022/07/26 00:01:28;;;;;;;22.08;20.77;;;21.80;61.90;;;;;;5049444;28;20037;-82
2022/07/26 00:03:54;;;;;;;22.42;21.02;;;21.80;61.90;;;;;;5049415;28;20398;-82
2022/07/26 00:06:20;;;;;;;24.15;22.52;;;21.80;62.20;;;;;;5050942;28;20032;-82
2022/07/26 00:08:47;;;;;;;22.90;21.27;;;21.80;62.00;;;;;;5049707;28;20029;-82
2022/07/26 00:11:13;;;;;;;24.15;22.63;;;21.80;62.10;;;;;;5051042;28;20494;-82
2022/07/26 00:13:39;;;;;;;23.60;22.00;;;21.80;62.00;;;;;;5050863;28;20029;-82
2022/07/26 00:16:05;;;;;;;25.55;23.80;;;21.80;62.40;;;;;;5049427;28;20522;-82
2022/07/26 00:18:32;;;;;;;25.63;23.85;;;21.80;62.40;;;;;;5050408;28;20044;-82
2022/07/26 00:20:58;;;;;;;26.13;24.42;;;21.70;62.30;;;;;;5049325;28;20494;-82
2022/07/26 00:23:24;;;;;;;25.55;24.05;;;21.70;62.50;;;;;;5049686;28;20029;-82
2022/07/26 00:25:50;;;;;;;27.08;25.65;;;21.70;62.40;;;;;;5050806;28;20482;-82
2022/07/26 00:28:16;;;;;;;29.45;27.15;;;21.70;62.30;;;;;;5049559;28;20033;-82
2022/07/26 00:30:42;;;;;;;29.48;27.77;;;21.70;62.30;;;;;;5050261;28;20033;-82
2022/07/26 00:33:08;;;;;;;32.13;30.25;;;21.70;62.50;;;;;;5032670;28;20027;-82
2022/07/26 00:35:34;;;;;;;27.77;26.08;;;21.70;62.10;;;;;;5050321;28;20422;-82
2022/07/26 00:38:00;;;;;;;25.08;23.58;;;21.70;62.50;;;;;;5048220;28;20036;-82
2022/07/26 00:40:27;;;;;;;25.35;23.55;;;21.70;62.70;;;;;;5030790;28;20044;-82
2022/07/26 00:42:53;;;;;;;23.38;21.52;;;21.70;62.20;;;;;;5013246;28;20034;-82
2022/07/26 00:45:19;;;;;;;24.02;22.35;;;21.70;62.20;;;;;;5049095;28;20491;-82
2022/07/26 00:47:45;;;;;;;21.50;20.27;;;21.70;62.10;;;;;;5049141;28;20452;-82
2022/07/26 00:50:13;;;;;;;20.77;19.38;;;21.60;62.30;;;;;;5049438;28;20036;-82
2022/07/26 00:52:46;;;;;;;23.00;21.45;;;21.60;62.30;;;;;;5050625;28;20048;-82
2022/07/26 00:55:12;;;;;;;22.65;21.23;;;21.70;63.60;;;;;;5050666;28;20041;-82
2022/07/26 00:57:40;;;;;;;22.90;21.63;;;21.70;62.60;;;;;;5049130;28;20021;-82
2022/07/26 01:00:09;;;;;;;24.50;22.58;;;21.70;62.90;;;;;;5048686;28;20485;-82
2022/07/26 01:02:35;;;;;;;25.45;23.52;;;21.60;63.00;;;;;;5049055;28;20029;-82
2022/07/26 01:05:01;;;;;;;23.92;22.40;;;21.60;63.10;;;;;;5036225;28;20036;-82
2022/07/26 01:07:28;;;;;;;24.77;23.15;;;21.60;63.10;;;;;;5052988;28;20025;-81
2022/07/26 01:09:54;;;;;;;25.95;24.10;;;21.60;64.20;;;;;;5054199;28;20463;-82
2022/07/26 01:12:20;;;;;;;25.80;24.13;;;21.60;63.10;;;;;;5053079;28;20033;-82
2022/07/26 01:14:46;;;;;;;26.67;24.95;;;21.60;63.30;;;;;;5054422;28;20037;-82
2022/07/26 01:17:12;;;;;;;27.25;25.48;;;21.60;63.10;;;;;;5052052;28;20403;-82
2022/07/26 01:19:39;;;;;;;27.60;25.65;;;21.50;63.50;;;;;;5052693;28;20025;-82
2022/07/26 01:22:05;;;;;;;27.17;25.48;;;21.50;63.50;;;;;;5052710;28;20036;-82
2022/07/26 01:24:31;;;;;;;28.55;26.67;;;21.50;63.60;;;;;;5053642;28;20472;-82
2022/07/26 01:26:57;;;;;;;28.50;26.88;;;21.50;63.90;;;;;;5053931;28;20029;-82
2022/07/26 01:29:23;;;;;;;26.70;24.90;;;21.50;63.70;;;;;;5053909;28;20044;-82
2022/07/26 01:31:50;;;;;;;25.80;24.13;;;21.50;63.80;;;;;;5052975;28;20041;-82
2022/07/26 01:34:16;;;;;;;25.95;24.25;;;21.50;64.10;;;;;;5035614;28;20059;-82
2022/07/26 01:36:42;;;;;;;26.25;24.52;;;21.50;64.30;;;;;;5052388;28;20025;-82
2022/07/26 01:39:08;;;;;;;25.83;24.08;;;21.40;64.10;;;;;;5041811;28;20030;-82
2022/07/26 01:41:34;;;;;;;30.50;28.50;;;21.40;64.20;;;;;;5033740;28;20025;-82
2022/07/26 01:44:01;;;;;;;30.38;28.50;;;21.40;64.40;;;;;;5041763;28;20033;-82
2022/07/26 01:46:27;;;;;;;30.75;28.70;;;21.40;64.50;;;;;;5034656;28;20502;-82
2022/07/26 01:48:53;;;;;;;29.83;27.98;;;21.30;64.40;;;;;;5052242;28;20037;-82
2022/07/26 01:51:19;;;;;;;36.20;33.85;;;21.30;64.80;;;;;;5053249;28;20017;-82
2022/07/26 01:53:46;;;;;;;37.08;34.90;;;21.30;64.80;;;;;;5052190;28;20028;-82
2022/07/26 01:56:12;;;;;;;45.55;43.00;;;21.30;65.00;;;;;;5053303;28;20503;-81
2022/07/26 01:58:39;;;;;;;45.25;42.90;;;21.30;64.80;;;;;;5052286;28;20032;-82
2022/07/26 02:01:06;;;;;;;54.03;51.03;;;21.20;64.80;;;;;;5052398;28;20388;-82
2022/07/26 02:03:32;;;;;;;46.20;43.58;;;21.20;65.40;;;;;;5053119;28;20356;-82
2022/07/26 02:05:58;;;;;;;41.72;39.10;;;21.20;65.20;;;;;;5051996;28;20475;-82
2022/07/26 02:08:24;;;;;;;45.67;43.08;;;21.20;65.00;;;;;;5035136;28;20025;-82
2022/07/26 02:11:00;;;;;;;44.42;41.78;;;21.20;65.20;;;;;;5035261;28;20468;-81
2022/07/26 02:13:34;;;;;;;40.03;37.60;;;21.20;65.00;;;;;;5036369;28;20033;-81
2022/07/26 02:16:02;;;;;;;36.90;34.22;;;21.20;65.50;;;;;;5034877;28;20045;-82
2022/07/26 02:18:28;;;;;;;31.27;29.38;;;21.10;65.30;;;;;;5035172;28;20459;-82
2022/07/26 02:20:54;;;;;;;31.60;29.38;;;21.10;65.70;;;;;;5034795;28;20048;-82
2022/07/26 02:23:21;;;;;;;32.17;30.17;;;21.10;65.50;;;;;;5051471;28;20411;-82
2022/07/26 02:25:47;;;;;;;31.58;29.50;;;21.10;66.20;;;;;;5034560;28;20052;-82
2022/07/26 02:28:14;;;;;;;33.03;30.73;;;21.10;66.00;;;;;;5051074;28;20025;-81
2022/07/26 02:30:41;;;;;;;30.85;28.98;;;21.10;65.90;;;;;;5052218;28;20033;-81
2022/07/26 02:33:07;;;;;;;33.33;31.17;;;21.00;66.70;;;;;;5051540;28;20032;-82
2022/07/26 02:35:33;;;;;;;31.35;29.52;;;21.00;66.60;;;;;;5036054;28;20044;-81
2022/07/26 02:38:04;;;;;;;32.95;30.50;;;21.00;66.50;;;;;;5033346;28;20033;-82
2022/07/26 02:40:30;;;;;;;;;;;21.00;66.50;;;;;;5052724;28;20033;-82
2022/07/26 02:42:56;;;;;;;24.02;22.63;;;21.10;66.20;;;;;;5084267;28;20195;-82
2022/07/26 02:45:22;;;;;;;35.05;32.78;;;21.10;66.00;;;;;;5040768;28;20055;-82
2022/07/26 02:47:49;;;;;;;32.92;30.90;;;21.00;66.00;;;;;;5051042;28;20532;-82
2022/07/26 02:50:19;;;;;;;32.63;30.30;;;21.00;66.20;;;;;;5050829;28;20036;-82
2022/07/26 02:52:46;;;;;;;31.77;29.77;;;21.00;66.20;;;;;;5050922;28;20379;-82
2022/07/26 02:55:14;;;;;;;33.75;31.63;;;21.10;66.30;;;;;;5051970;28;20037;-82
2022/07/26 02:57:40;;;;;;;27.27;25.38;;;21.00;66.20;;;;;;5033754;28;20041;-81
2022/07/26 03:00:07;;;;;;;32.85;30.92;;;21.10;66.30;;;;;;5051559;28;20364;-81
2022/07/26 03:02:33;;;;;;;25.63;24.00;;;21.00;66.30;;;;;;5052035;28;20025;-82
2022/07/26 03:05:01;;;;;;;24.67;22.98;;;21.00;66.20;;;;;;5051971;28;20048;-82
2022/07/26 03:07:27;;;;;;;32.55;30.40;;;21.10;66.20;;;;;;5050660;28;20029;-82
2022/07/26 03:09:53;;;;;;;30.05;27.83;;;21.10;66.10;;;;;;5050534;28;20045;-82
2022/07/26 03:12:19;;;;;;;33.17;30.63;;;21.10;65.90;;;;;;5033434;28;20040;-82
2022/07/26 03:14:45;;;;;;;35.20;32.70;;;21.10;66.10;;;;;;5050572;28;20045;-82
2022/07/26 03:17:12;;;;;;;33.38;31.38;;;21.10;66.20;;;;;;5051329;28;20025;-82
2022/07/26 03:19:38;;;;;;;30.95;28.85;;;21.10;66.40;;;;;;5050517;28;20029;-82
2022/07/26 03:22:04;;;;;;;31.30;29.55;;;21.00;66.20;;;;;;5051726;28;20029;-82
2022/07/26 03:24:30;;;;;;;31.25;29.05;;;21.00;66.30;;;;;;5050204;28;20025;-82
2022/07/26 03:26:56;;;;;;;31.77;29.88;;;21.00;66.20;;;;;;5050040;28;20040;-81
2022/07/26 03:29:22;;;;;;;32.58;30.58;;;21.00;66.60;;;;;;5050624;28;20025;-82
2022/07/26 03:31:48;;;;;;;33.67;31.58;;;21.00;66.60;;;;;;5049741;28;20037;-82
2022/07/26 03:34:14;;;;;;;34.75;32.50;;;21.10;66.30;;;;;;5049930;28;20032;-82
2022/07/26 03:36:42;;;;;;;35.70;33.45;;;21.00;66.20;;;;;;5051452;28;20032;-82
2022/07/26 03:39:09;;;;;;;33.00;30.90;;;21.00;66.40;;;;;;5038425;28;20411;-82
2022/07/26 03:41:35;;;;;;;30.13;28.30;;;21.10;66.10;;;;;;5031219;28;20033;-82
2022/07/26 03:44:01;;;;;;;29.63;27.88;;;21.10;66.10;;;;;;5039565;28;20395;-82
2022/07/26 03:46:27;;;;;;;32.70;30.48;;;21.00;65.90;;;;;;5049308;28;20067;-82
2022/07/26 03:48:53;;;;;;;31.55;29.55;;;21.00;66.10;;;;;;5050969;28;20510;-81
2022/07/26 03:51:19;;;;;;;31.77;29.67;;;21.00;66.10;;;;;;5051230;28;20029;-82
2022/07/26 03:53:46;;;;;;;28.58;26.83;;;21.00;66.00;;;;;;5049897;28;20040;-82
2022/07/26 03:56:27;;;;;;;29.48;27.73;;;21.00;66.20;;;;;;5049621;28;20040;-82
2022/07/26 03:59:13;;;;;;;30.15;28.17;;;21.10;66.10;;;;;;5049780;28;20044;-82
2022/07/26 04:01:40;;;;;;;27.88;25.98;;;21.10;65.80;;;;;;5050222;28;20410;-81
2022/07/26 04:04:10;;;;;;;24.98;23.48;;;21.10;66.00;;;;;;5051042;28;20025;-82
2022/07/26 04:06:37;;;;;;;24.53;23.00;;;21.00;65.90;;;;;;5049826;28;20029;-82
2022/07/26 04:09:03;;;;;;;24.77;23.23;;;21.00;65.60;;;;;;5050762;28;20029;-82
2022/07/26 04:11:29;;;;;;;25.33;23.60;;;21.00;65.70;;;;;;5050628;28;20033;-82
2022/07/26 04:13:56;;;;;;;24.33;22.73;;;21.10;65.60;;;;;;5047387;28;20563;-82
2022/07/26 04:16:22;;;;;;;23.50;22.10;;;21.00;65.60;;;;;;5049920;28;20044;-82
2022/07/26 04:18:48;;;;;;;25.35;23.80;;;21.00;65.40;;;;;;5032991;28;20041;-82
2022/07/26 04:21:15;;;;;;;24.70;23.17;;;21.00;65.20;;;;;;5050710;28;20048;-81
2022/07/26 04:23:41;;;;;;;25.73;23.85;;;21.00;65.00;;;;;;5050866;28;20076;-82
2022/07/26 04:26:07;;;;;;;26.83;24.83;;;21.00;65.00;;;;;;5050545;28;20033;-82
2022/07/26 04:28:33;;;;;;;25.65;23.85;;;21.00;64.50;;;;;;5049553;28;20029;-82
2022/07/26 04:30:59;;;;;;;26.55;24.80;;;21.00;64.60;;;;;;5050347;28;20060;-82
2022/07/26 04:33:25;;;;;;;25.25;23.60;;;20.90;64.50;;;;;;5050884;28;20053;-82
2022/07/26 04:35:52;;;;;;;27.13;25.45;;;20.90;64.70;;;;;;5031639;28;20048;-82
2022/07/26 04:38:18;;;;;;;27.23;25.40;;;20.80;64.20;;;;;;5035242;28;20474;-82
2022/07/26 04:40:44;;;;;;;25.63;24.13;;;20.70;64.60;;;;;;5054174;28;20029;-82
2022/07/26 04:43:10;;;;;;;27.67;25.70;;;20.70;65.00;;;;;;5052241;28;20028;-82
2022/07/26 04:45:36;;;;;;;26.00;24.15;;;20.80;64.60;;;;;;5043383;28;20494;-82
2022/07/26 04:48:03;;;;;;;22.92;21.52;;;20.80;64.80;;;;;;5053505;28;20029;-82
2022/07/26 04:50:29;;;;;;;22.67;21.27;;;20.80;64.70;;;;;;5054490;28;20029;-82
2022/07/26 04:52:55;;;;;;;23.33;21.98;;;20.80;64.80;;;;;;5054492;28;20036;-82
2022/07/26 04:55:21;;;;;;;22.83;21.35;;;20.80;64.80;;;;;;5053277;28;20037;-82
2022/07/26 04:57:48;;;;;;;27.70;26.15;;;20.90;64.50;;;;;;5053077;28;20025;-82
2022/07/26 05:00:20;;;;;;;27.90;25.98;;;20.80;64.80;;;;;;5052670;28;20502;-82
2022/07/26 05:02:48;;;;;;;27.40;25.70;;;20.80;65.20;;;;;;5054621;28;20183;-82
2022/07/26 05:05:14;;;;;;;27.48;25.65;;;20.50;65.50;;;;;;5054260;28;20037;-82
2022/07/26 05:07:45;;;;;;;27.90;26.30;;;20.60;65.30;;;;;;5053953;28;20048;-82
2022/07/26 05:10:11;;;;;;;28.33;26.40;;;20.50;65.50;;;;;;5052978;28;20062;-82
2022/07/26 05:12:38;;;;;;;27.55;25.75;;;20.60;65.70;;;;;;5054356;28;20025;-82
2022/07/26 05:15:04;;;;;;;26.27;24.38;;;20.60;65.70;;;;;;5052338;28;20040;-81
2022/07/26 05:17:30;;;;;;;25.40;23.77;;;20.60;65.50;;;;;;5052856;28;20040;-81
2022/07/26 05:19:56;;;;;;;26.95;25.33;;;20.70;65.50;;;;;;5054146;28;20053;-82
2022/07/26 05:22:23;;;;;;;27.80;25.85;;;20.70;65.20;;;;;;5053681;28;20390;-82
2022/07/26 05:24:49;;;;;;;26.30;24.73;;;20.70;64.80;;;;;;5054189;28;20472;-81
2022/07/26 05:27:15;;;;;;;22.70;21.25;;;20.70;64.90;;;;;;5052570;28;20032;-82
2022/07/26 05:29:41;;;;;;;22.40;20.90;;;20.80;66.00;;;;;;5054034;28;20052;-82
2022/07/26 05:32:07;;;;;;;22.55;21.05;;;21.00;65.40;;;;;;5053506;28;20033;-81
2022/07/26 05:34:33;;;;;;;21.52;20.13;;;21.00;65.20;;;;;;5035678;28;20045;-82
2022/07/26 05:36:59;;;;;;;23.33;21.90;;;21.10;65.30;;;;;;5051998;28;20491;-82
2022/07/26 05:39:26;;;;;;;22.45;21.10;;;21.10;65.00;;;;;;5038523;28;20037;-82
2022/07/26 05:41:52;;;;;;;25.10;23.33;;;21.10;65.10;;;;;;5032507;28;20030;-81
2022/07/26 05:44:18;;;;;;;26.33;24.70;;;21.10;65.10;;;;;;5042959;28;20381;-82
2022/07/26 05:46:44;;;;;;;25.33;23.70;;;21.00;65.10;;;;;;5051635;28;20041;-82
2022/07/26 05:49:10;;;;;;;22.70;21.50;;;20.90;64.50;;;;;;5052657;28;20479;-82
2022/07/26 05:51:36;;;;;;;24.77;23.25;;;20.80;64.60;;;;;;5052524;28;20033;-82
2022/07/26 05:54:02;;;;;;;22.95;21.58;;;20.70;65.20;;;;;;5052050;28;20617;-82
2022/07/26 05:56:28;;;;;;;23.58;22.17;;;20.70;64.90;;;;;;5053017;28;20045;-82
2022/07/26 05:58:54;;;;;;;23.40;22.10;;;20.60;64.90;;;;;;5051997;28;20025;-82
2022/07/26 06:01:31;;;;;;;23.65;22.20;;;20.60;65.10;;;;;;5053081;28;20029;-82
2022/07/26 06:04:00;;;;;;;25.10;23.45;;;20.60;64.90;;;;;;5051725;28;20056;-82
2022/07/26 06:06:26;;;;;;;24.45;22.88;;;20.70;64.90;;;;;;5052770;28;20028;-82
2022/07/26 06:08:52;;;;;;;25.48;23.77;;;20.70;65.10;;;;;;5052118;28;20028;-81
2022/07/26 06:11:18;;;;;;;24.50;22.80;;;20.80;65.70;;;;;;5053232;28;20036;-82
2022/07/26 06:13:44;;;;;;;23.73;22.33;;;20.80;64.50;;;;;;5051672;28;20033;-82
2022/07/26 06:16:10;;;;;;;25.05;23.38;;;20.80;64.30;;;;;;5052455;28;20045;-81
2022/07/26 06:18:36;;;;;;;24.83;23.15;;;20.80;64.40;;;;;;5052793;28;20376;-82
2022/07/26 06:21:03;;;;;;;25.30;23.52;;;20.70;64.40;;;;;;5034748;28;20037;-82
2022/07/26 06:23:29;;;;;;;24.73;22.58;;;20.60;64.70;;;;;;5051602;28;20025;-81
2022/07/26 06:25:55;;;;;;;23.90;22.35;;;20.70;64.80;;;;;;5051471;28;20052;-81
2022/07/26 06:28:21;;;;;;;24.35;22.75;;;20.70;65.00;;;;;;5052478;28;20033;-81
2022/07/26 06:30:47;;;;;;;23.98;22.58;;;20.70;65.90;;;;;;5049152;28;20044;-82
2022/07/26 06:33:14;;;;;;;24.73;23.10;;;20.90;65.20;;;;;;5035101;28;20037;-81
2022/07/26 06:35:41;;;;;;;26.15;24.45;;;21.00;65.20;;;;;;5034906;28;20037;-82
2022/07/26 06:38:07;;;;;;;26.13;24.13;;;21.10;64.90;;;;;;5034223;28;20037;-82
2022/07/26 06:40:33;;;;;;;26.50;24.83;;;21.20;64.40;;;;;;5051293;28;20494;-82
2022/07/26 06:42:59;;;;;;;28.33;26.38;;;21.20;64.40;;;;;;5051201;28;20025;-82
2022/07/26 06:45:27;;;;;;;27.13;25.38;;;21.20;64.30;;;;;;5023221;28;20044;-82
2022/07/26 06:47:53;;;;;;;32.10;30.17;;;21.20;64.40;;;;;;5051162;28;20471;-82
2022/07/26 06:50:20;;;;;;;32.13;29.80;;;21.20;64.10;;;;;;5052080;28;20388;-82
2022/07/26 06:52:46;;;;;;;34.42;32.42;;;21.20;64.40;;;;;;5053819;28;20028;-82
2022/07/26 06:55:12;;;;;;;35.33;33.00;;;21.30;63.90;;;;;;5053028;28;20032;-82
2022/07/26 06:57:38;;;;;;;34.40;32.50;;;21.20;63.80;;;;;;5053663;28;20049;-82
2022/07/26 07:00:06;;;;;;;34.13;32.00;;;21.30;63.90;;;;;;5053703;28;20048;-82
2022/07/26 07:02:32;;;;;;;33.53;31.70;;;21.40;64.10;;;;;;5051739;28;20044;-82
2022/07/26 07:04:58;;;;;;;28.38;26.48;;;21.50;63.10;;;;;;5050704;28;20032;-82
2022/07/26 07:07:24;;;;;;;34.78;32.63;;;21.50;62.00;;;;;;5034192;28;20048;-83
2022/07/26 07:09:50;;;;;;;30.70;29.00;;;21.40;63.00;;;;;;5050701;28;20025;-82
2022/07/26 07:12:16;;;;;;;32.22;30.25;;;21.40;62.80;;;;;;5050743;28;20029;-82
2022/07/26 07:14:42;;;;;;;33.97;31.55;;;21.10;63.30;;;;;;5050565;28;20463;-82
2022/07/26 07:17:09;;;;;;;31.00;29.10;;;21.10;64.00;;;;;;5051323;28;20037;-82
2022/07/26 07:19:35;;;;;;;25.55;23.83;;;21.10;63.70;;;;;;5050172;28;20032;-82
2022/07/26 07:22:02;;;;;;;28.92;27.27;;;21.10;62.20;;;;;;5033833;28;20391;-83
2022/07/26 07:24:28;;;;;;;23.70;22.30;;;21.20;62.60;;;;;;5050312;28;20036;-82
2022/07/26 07:26:55;;;;;;;23.40;21.90;;;21.30;61.50;;;;;;5051723;28;20029;-82
2022/07/26 07:29:21;;;;;;;22.80;21.55;;;21.50;60.40;;;;;;5050352;28;20475;-82
2022/07/26 07:31:47;;;;;;;22.08;20.67;;;21.60;59.80;;;;;;5051007;28;20029;-82
2022/07/26 07:34:14;;;;;;;21.15;19.63;;;21.60;60.40;;;;;;5051016;28;20029;-82
2022/07/26 07:36:40;;;;;;;22.00;20.40;;;21.70;59.80;;;;;;5050205;28;20044;-83
2022/07/26 07:39:06;;;;;;;20.77;19.25;;;21.80;60.00;;;;;;5051215;28;20025;-82
2022/07/26 07:41:33;;;;;;;19.92;18.77;;;21.90;58.90;;;;;;5050120;28;20044;-82
2022/07/26 07:43:59;;;;;;;21.05;19.65;;;22.00;59.10;;;;;;5043388;28;20048;-83
2022/07/26 07:46:26;;;;;;;22.20;20.83;;;22.10;59.10;;;;;;5046572;28;20131;-83
2022/07/26 07:48:52;;;;;;;21.05;19.67;;;22.20;58.30;;;;;;5050998;28;20025;-82
2022/07/26 07:51:20;;;;;;;22.55;21.30;;;22.20;59.00;;;;;;5051144;28;20534;-83
2022/07/26 07:53:46;;;;;;;23.10;21.40;;;22.20;58.30;;;;;;5049715;28;20064;-83
2022/07/26 07:56:12;;;;;;;23.83;22.42;;;22.30;58.20;;;;;;5033054;28;20051;-82
2022/07/26 07:58:38;;;;;;;25.25;23.80;;;22.50;57.70;;;;;;5051338;28;20033;-83
2022/07/26 08:01:05;;;;;;;24.58;22.90;;;22.60;56.90;;;;;;5050350;28;20380;-83
2022/07/26 08:03:31;;;;;;;28.17;26.45;;;22.70;57.40;;;;;;5050739;28;20040;-82
2022/07/26 08:05:57;;;;;;;28.60;26.88;;;22.60;56.20;;;;;;5049906;28;20051;-82
2022/07/26 08:08:23;;;;;;;23.85;22.55;;;22.60;56.40;;;;;;5049880;28;20029;-83
2022/07/26 08:10:50;;;;;;;21.85;20.55;;;22.60;55.90;;;;;;5050879;28;20051;-83
2022/07/26 08:13:16;;;;;;;21.00;19.90;;;22.70;55.40;;;;;;5049057;28;20037;-83
2022/07/26 08:15:42;;;;;;;21.55;20.15;;;22.70;53.20;;;;;;5050307;28;20053;-83
2022/07/26 08:18:08;;;;;;;19.63;18.33;;;22.60;53.30;;;;;;5049018;28;20040;-82
2022/07/26 08:20:34;;;;;;;18.50;17.30;;;22.50;53.40;;;;;;5050736;28;20029;-82
2022/07/26 08:23:00;;;;;;;16.10;15.13;;;22.50;53.30;;;;;;5050895;28;20029;-83
2022/07/26 08:25:27;;;;;;;19.67;18.58;;;22.50;53.70;;;;;;5051080;28;20387;-83
2022/07/26 08:27:53;;;;;;;17.90;17.00;;;22.70;53.40;;;;;;5033172;28;20029;-83
2022/07/26 08:30:19;;;;;;;20.00;18.63;;;22.80;52.70;;;;;;5050123;28;20395;-84
2022/07/26 08:32:45;;;;;;;17.52;16.52;;;23.10;52.90;;;;;;5050644;28;20033;-83
2022/07/26 08:35:11;;;;;;;19.15;17.85;;;23.30;51.90;;;;;;5049312;28;20405;-83
2022/07/26 08:37:37;;;;;;;16.65;15.70;;;23.10;52.50;;;;;;5050830;28;20040;-83
2022/07/26 08:40:04;;;;;;;15.50;14.70;;;23.50;51.70;;;;;;5050510;28;20032;-83
2022/07/26 08:42:30;;;;;;;15.50;14.60;;;23.60;50.50;;;;;;5052761;28;20029;-83
2022/07/26 08:44:57;;;;;;;17.50;16.33;;;23.70;50.80;;;;;;5039603;28;20368;-83
2022/07/26 08:47:23;;;;;;;16.65;15.55;;;23.70;49.40;;;;;;5048785;28;20507;-83
2022/07/26 08:49:49;;;;;;;18.52;17.35;;;23.80;50.10;;;;;;5052048;28;20395;-83
2022/07/26 08:52:15;;;;;;;18.50;17.20;;;23.80;50.70;;;;;;5057096;28;20048;-83
2022/07/26 08:54:46;;;;;;;16.05;15.10;;;24.10;51.00;;;;;;5053448;28;20032;-84
2022/07/26 08:57:13;;;;;;;16.00;15.20;;;24.20;49.60;;;;;;5052543;28;20029;-83
2022/07/26 08:59:39;;;;;;;15.85;14.95;;;24.10;49.80;;;;;;5051562;28;20506;-83
2022/07/26 09:02:06;;;;;;;16.05;15.23;;;23.70;50.10;;;;;;5049923;28;20048;-83
2022/07/26 09:04:37;;;;;;;15.13;14.05;;;23.80;50.00;;;;;;5049174;28;20040;-83
2022/07/26 09:07:03;;;;;;;;;;;23.80;48.70;;;;;;5051172;28;20032;-83
2022/07/26 09:09:30;;;;;;;16.17;15.27;;;24.00;48.20;;;;;;5050623;28;19905;-83
2022/07/26 09:11:57;;;;;;;16.60;15.48;;;24.00;48.60;;;;;;5050779;28;20033;-83
2022/07/26 09:14:34;;;;;;;15.48;14.57;;;24.20;48.50;;;;;;5049185;28;20025;-84
2022/07/26 09:17:00;;;;;;;18.40;17.40;;;24.20;48.10;;;;;;5033061;28;20037;-83
2022/07/26 09:19:26;;;;;;;21.15;20.02;;;24.20;47.50;;;;;;5032567;28;20029;-84
2022/07/26 09:21:54;;;;;;;21.52;20.23;;;24.30;47.60;;;;;;5049081;28;20394;-84
2022/07/26 09:24:30;;;;;;;24.48;23.15;;;24.50;46.90;;;;;;5050435;28;20033;-85
2022/07/26 09:27:00;;;;;;;22.35;21.23;;;24.90;46.40;;;;;;5053932;28;20029;-84
2022/07/26 09:29:27;;;;;;;25.23;23.95;;;24.80;44.20;;;;;;5053604;28;20250;-84
2022/07/26 09:32:07;;;;;;;21.48;20.35;;;24.90;43.20;;;;;;5051839;28;20485;-83
2022/07/26 09:34:33;;;;;;;22.25;21.02;;;24.90;43.70;;;;;;5035653;28;20048;-83
2022/07/26 09:36:59;;;;;;;21.55;20.45;;;24.90;45.10;;;;;;5053598;28;20049;-84
2022/07/26 09:39:25;;;;;;;20.85;19.42;;;24.80;44.60;;;;;;5039656;28;20040;-83
2022/07/26 09:41:51;;;;;;;21.45;20.20;;;24.70;44.40;;;;;;5034102;28;20368;-84
2022/07/26 09:44:22;;;;;;;22.60;21.40;;;24.60;45.40;;;;;;5043768;28;20040;-83
2022/07/26 09:46:52;;;;;;;24.25;22.92;;;24.70;43.50;;;;;;5048474;28;20037;-83
2022/07/26 09:49:19;;;;;;;22.03;20.83;;;24.80;43.70;;;;;;5016198;28;20397;-84
2022/07/26 09:51:47;;;;;;;21.98;20.58;;;25.00;43.20;;;;;;5033378;28;20377;-84
2022/07/26 09:54:32;;;;;;;23.60;22.40;;;25.10;43.20;;;;;;5033635;28;20053;-84
2022/07/26 09:56:58;;;;;;;24.40;23.20;;;25.30;42.90;;;;;;5033062;28;20395;-84
2022/07/26 09:59:25;;;;;;;22.75;21.65;;;25.10;40.30;;;;;;5033270;28;20029;-85
2022/07/26 10:01:52;;;;;;;21.17;19.88;;;25.10;41.80;;;;;;5031706;28;20057;-84
2022/07/26 10:04:19;;;;;;;20.40;19.25;;;24.90;42.40;;;;;;5032185;28;20041;-84
2022/07/26 10:06:45;;;;;;;19.90;18.52;;;24.80;42.60;;;;;;5033460;28;20025;-84
2022/07/26 10:09:11;;;;;;;22.60;21.42;;;24.40;42.50;;;;;;5031928;28;20029;-84
2022/07/26 10:11:40;;;;;;;22.80;21.52;;;24.40;42.50;;;;;;5032133;28;20026;-84
2022/07/26 10:14:32;;;;;;;22.13;20.70;;;24.60;41.60;;;;;;5031947;28;20021;-84
2022/07/26 10:16:58;;;;;;;26.17;24.30;;;24.80;42.90;;;;;;5032499;28;20045;-84
2022/07/26 10:19:38;;;;;;;21.17;20.08;;;25.10;42.90;;;;;;5033274;28;20034;-84
2022/07/26 10:22:23;;;;;;;22.10;20.83;;;25.10;43.10;;;;;;5033129;28;20042;-84
2022/07/26 10:24:50;;;;;;;21.58;20.08;;;25.10;42.90;;;;;;5033116;28;20048;-84
2022/07/26 10:27:48;;;;;;;18.23;17.23;;;25.00;42.60;;;;;;5032751;28;20353;-84
2022/07/26 10:30:16;;;;;;;18.73;17.52;;;24.60;44.00;;;;;;5024139;28;20041;-83
2022/07/26 10:33:00;;;;;;;17.85;16.85;;;24.50;44.90;;;;;;5032809;28;20379;-83
2022/07/26 10:35:39;;;;;;;19.13;18.00;;;24.40;44.20;;;;;;5047487;28;20399;-84
2022/07/26 10:38:12;;;;;;;20.00;18.42;;;24.50;44.80;;;;;;5048368;28;20033;-84
2022/07/26 10:41:00;;;;;;;20.35;19.25;;;24.70;45.00;;;;;;5015232;28;20029;-84
2022/07/26 10:43:26;;;;;;;21.50;20.40;;;24.90;44.90;;;;;;5035005;28;20025;-84
2022/07/26 10:46:16;;;;;;;21.88;20.65;;;25.20;44.60;;;;;;5050469;28;20052;-84
2022/07/26 10:49:03;;;;;;;21.48;20.45;;;25.30;43.40;;;;;;5051490;28;20021;-84
2022/07/26 10:51:35;;;;;;;22.13;21.02;;;25.50;43.10;;;;;;5051587;28;20048;-84
2022/07/26 10:54:02;;;;;;;21.45;20.25;;;25.60;42.70;;;;;;5051354;28;20371;-84
2022/07/26 10:56:28;;;;;;;21.77;20.67;;;25.60;42.40;;;;;;5051909;28;20040;-84
2022/07/26 10:58:54;;;;;;;22.60;21.25;;;25.60;42.80;;;;;;5034573;28;20055;-84
2022/07/26 11:01:20;;;;;;;20.70;19.48;;;25.50;41.90;;;;;;5051582;28;20029;-83
2022/07/26 11:03:47;;;;;;;20.02;18.98;;;25.10;42.10;;;;;;5052093;28;20051;-83
2022/07/26 11:06:14;;;;;;;18.85;17.90;;;24.70;42.60;;;;;;5034485;28;20048;-83
2022/07/26 11:08:42;;;;;;;20.23;19.02;;;24.50;43.50;;;;;;5034408;28;20036;-83
2022/07/26 11:11:09;;;;;;;21.15;19.88;;;24.60;44.00;;;;;;5017630;28;20266;-83
2022/07/26 11:13:36;;;;;;;20.73;19.65;;;24.80;43.40;;;;;;5050413;28;20029;-83
2022/07/26 11:16:06;;;;;;;20.10;19.08;;;24.90;43.00;;;;;;5051333;28;20033;-84
2022/07/26 11:18:36;;;;;;;19.85;18.75;;;25.00;43.50;;;;;;5051820;28;20029;-84
2022/07/26 11:21:13;;;;;;;20.83;19.75;;;25.00;43.20;;;;;;5051302;28;20043;-84
2022/07/26 11:23:42;;;;;;;19.90;18.23;;;25.10;42.50;;;;;;5050626;28;20040;-83
2022/07/26 11:26:18;;;;;;;19.65;18.65;;;24.70;43.30;;;;;;5050868;28;20674;-83
2022/07/26 11:28:56;;;;;;;20.45;19.30;;;24.70;43.30;;;;;;5050579;28;20036;-83
2022/07/26 11:31:41;;;;;;;20.20;19.20;;;24.80;43.20;;;;;;5051193;28;20029;-83
2022/07/26 11:34:21;;;;;;;21.10;20.02;;;24.90;43.10;;;;;;5051337;28;20064;-82
2022/07/26 11:36:47;;;;;;;20.67;19.38;;;25.10;42.60;;;;;;5051510;28;20048;-83
2022/07/26 11:39:18;;;;;;;20.92;19.83;;;25.00;42.30;;;;;;5037071;28;20037;-84
2022/07/26 11:41:44;;;;;;;20.67;19.58;;;25.00;42.30;;;;;;5014326;28;20037;-84
2022/07/26 11:44:17;;;;;;;20.55;19.45;;;25.10;41.90;;;;;;5041004;28;20594;-83
2022/07/26 11:46:47;;;;;;;20.67;19.42;;;25.00;41.90;;;;;;5049535;28;20053;-83
2022/07/26 11:49:23;;;;;;;22.00;20.70;;;25.10;43.20;;;;;;5050300;28;20032;-83
2022/07/26 11:51:56;;;;;;;21.55;20.45;;;25.30;41.60;;;;;;5034944;28;20467;-83
2022/07/26 11:54:24;;;;;;;18.80;17.80;;;25.20;41.60;;;;;;5050813;28;20044;-83
2022/07/26 11:56:58;;;;;;;19.80;18.70;;;25.00;42.20;;;;;;5051060;28;20389;-82
2022/07/26 11:59:29;;;;;;;21.00;19.73;;;25.00;42.70;;;;;;5050006;28;20028;-83
2022/07/26 12:01:55;;;;;;;20.48;19.48;;;25.20;42.60;;;;;;5050622;28;20037;-83
2022/07/26 12:04:26;;;;;;;23.80;22.65;;;25.50;41.90;;;;;;5049822;28;20025;-83
2022/07/26 12:06:52;;;;;;;24.40;22.98;;;25.70;41.00;;;;;;5049728;28;20021;-83
2022/07/26 12:09:35;;;;;;;21.58;20.52;;;25.80;40.60;;;;;;5033306;28;20033;-83
2022/07/26 12:12:08;;;;;;;21.92;20.60;;;25.50;40.70;;;;;;5050054;28;20048;-83
2022/07/26 12:14:35;;;;;;;22.90;21.70;;;25.50;41.40;;;;;;5016892;28;20037;-83
2022/07/26 12:17:14;;;;;;;22.83;21.55;;;25.70;40.90;;;;;;5049125;28;20391;-83
2022/07/26 12:19:41;;;;;;;24.92;23.30;;;25.80;41.20;;;;;;5050838;28;20024;-83
2022/07/26 12:22:10;;;;;;;24.00;22.50;;;25.90;40.90;;;;;;5033366;28;20029;-83
2022/07/26 12:24:44;;;;;;;22.57;21.47;;;25.80;40.10;;;;;;5050633;28;20041;-83
2022/07/26 12:27:11;;;;;;;23.45;22.05;;;25.70;40.80;;;;;;5050905;28;20294;-83
2022/07/26 12:29:38;;;;;;;23.00;21.90;;;25.90;41.50;;;;;;5033262;28;20033;-84
2022/07/26 12:32:06;;;;;;;24.80;23.27;;;26.10;40.60;;;;;;5049278;28;20045;-83